createdAt,value
2023-07-10T00:01:49.233Z,11.75
2023-07-10T00:04:17.899Z,10.25
2023-07-10T00:06:45.876Z,13.50
2023-07-10T00:09:15.243Z,11.50
2023-07-10T00:11:43.220Z,9.75
2023-07-10T00:14:19.120Z,11.00
2023-07-10T00:16:47.200Z,11.00
2023-07-10T00:19:15.644Z,10.00
2023-07-10T00:21:43.707Z,9.00
2023-07-10T00:24:11.685Z,12.00
2023-07-10T00:26:41.247Z,10.00
2023-07-10T00:29:15.989Z,10.00
2023-07-10T00:31:44.025Z,10.75
2023-07-10T00:34:14.873Z,11.00
2023-07-10T00:36:43.109Z,10.50
2023-07-10T00:39:20.229Z,9.50
2023-07-10T00:41:50.636Z,10.25
2023-07-10T00:44:18.945Z,9.75
2023-07-10T00:46:50.247Z,11.00
2023-07-10T00:49:20.194Z,11.00
2023-07-10T00:51:53.219Z,10.50
2023-07-10T00:54:24.660Z,11.50
2023-07-10T00:56:54.714Z,10.50
2023-07-10T00:59:23.505Z,11.00
2023-07-10T01:02:19.980Z,9.50
2023-07-10T01:04:54.034Z,10.00
2023-07-10T01:07:23.925Z,11.50
2023-07-10T01:09:52.679Z,10.00
2023-07-10T01:12:22.106Z,9.75
2023-07-10T01:14:50.356Z,10.50
2023-07-10T01:17:18.344Z,11.00
2023-07-10T01:19:47.167Z,11.00
2023-07-10T01:22:16.614Z,9.50
2023-07-10T01:24:44.910Z,11.00
2023-07-10T01:27:14.560Z,10.00
2023-07-10T01:29:44.386Z,10.50
2023-07-10T01:32:13.322Z,10.00
2023-07-10T01:34:42.728Z,8.75
2023-07-10T01:37:10.728Z,9.00
2023-07-10T01:39:41.583Z,10.50
2023-07-10T01:42:09.658Z,9.00
2023-07-10T01:44:39.029Z,11.00
2023-07-10T01:47:08.633Z,9.50
2023-07-10T01:49:39.771Z,9.75
2023-07-10T01:52:09.355Z,8.50
2023-07-10T01:54:37.771Z,9.00
2023-07-10T01:57:08.008Z,9.25
2023-07-10T01:59:35.936Z,10.00
2023-07-10T02:02:04.020Z,9.25
2023-07-10T02:04:32.353Z,9.75
2023-07-10T02:07:00.328Z,9.75
2023-07-10T02:09:29.525Z,9.75
2023-07-10T02:11:57.950Z,9.50
2023-07-10T02:14:27.605Z,10.00
2023-07-10T02:16:55.675Z,9.50
2023-07-10T02:19:23.687Z,10.00
2023-07-10T02:21:51.904Z,10.00
2023-07-10T02:24:20.124Z,9.50
2023-07-10T02:26:48.129Z,10.25
2023-07-10T02:29:16.124Z,9.50
2023-07-10T02:31:45.521Z,10.00
2023-07-10T02:34:14.249Z,9.00
2023-07-10T02:36:42.206Z,9.50
2023-07-10T02:39:10.225Z,9.00
2023-07-10T02:41:38.230Z,10.75
2023-07-10T02:44:06.558Z,10.00
2023-07-10T02:46:34.742Z,9.75
2023-07-10T02:49:04.265Z,9.25
2023-07-10T02:51:32.430Z,9.00
2023-07-10T02:54:00.660Z,9.00
2023-07-10T02:56:28.692Z,10.00
2023-07-10T02:58:56.634Z,9.25
2023-07-10T03:01:27.500Z,11.00
2023-07-10T03:03:55.922Z,8.25
2023-07-10T03:06:25.859Z,9.00
2023-07-10T03:08:53.832Z,9.25
2023-07-10T03:11:23.056Z,9.75
2023-07-10T03:13:51.377Z,9.00
2023-07-10T03:16:19.422Z,8.25
2023-07-10T03:18:47.402Z,9.00
2023-07-10T03:21:15.326Z,10.00
2023-07-10T03:23:46.602Z,9.25
2023-07-10T03:26:14.579Z,9.00
2023-07-10T03:28:42.631Z,10.00
2023-07-10T03:31:10.739Z,8.50
2023-07-10T03:33:39.098Z,9.25
2023-07-10T03:36:08.858Z,8.75
2023-07-10T03:38:37.260Z,10.00
2023-07-10T03:41:06.782Z,8.00
2023-07-10T03:43:35.024Z,8.50
2023-07-10T03:46:03.295Z,10.00
2023-07-10T03:48:31.593Z,9.25
2023-07-10T03:50:59.787Z,9.00
2023-07-10T03:53:29.205Z,8.75
2023-07-10T03:55:57.756Z,8.50
2023-07-10T03:58:29.346Z,9.00
2023-07-10T04:01:00.268Z,10.00
2023-07-10T04:03:30.385Z,10.75
2023-07-10T04:05:59.447Z,8.25
2023-07-10T04:08:29.625Z,9.00
2023-07-10T04:10:58.572Z,9.00
2023-07-10T04:13:28.258Z,9.50
2023-07-10T04:16:06.515Z,9.50
2023-07-10T04:18:35.372Z,8.75
2023-07-10T04:21:04.599Z,9.00
2023-07-10T04:23:32.859Z,8.50
2023-07-10T04:26:00.850Z,9.25
2023-07-10T04:28:30.210Z,8.50
2023-07-10T04:30:58.312Z,7.50
2023-07-10T04:33:27.480Z,8.75
2023-07-10T04:35:56.337Z,9.00
2023-07-10T04:38:24.812Z,9.00
2023-07-10T04:40:56.648Z,10.50
2023-07-10T04:43:25.956Z,10.00
2023-07-10T04:45:56.178Z,8.25
2023-07-10T04:48:24.382Z,10.00
2023-07-10T04:50:53.611Z,8.00
2023-07-10T04:53:22.041Z,10.75
2023-07-10T04:55:50.338Z,9.00
2023-07-10T04:58:18.424Z,9.25
2023-07-10T05:00:46.404Z,10.00
2023-07-10T05:03:15.860Z,10.75
2023-07-10T05:05:54.866Z,10.00
2023-07-10T05:08:26.456Z,10.00
2023-07-10T05:10:55.598Z,11.00
2023-07-10T05:13:25.929Z,8.00
2023-07-10T05:15:54.352Z,8.75
2023-07-10T05:18:23.714Z,10.75
2023-07-10T05:20:53.919Z,11.25
2023-07-10T05:23:22.317Z,9.50
2023-07-10T05:25:58.001Z,9.75
2023-07-10T05:28:26.112Z,9.50
2023-07-10T05:30:54.118Z,10.00
2023-07-10T05:33:23.830Z,9.75
2023-07-10T05:35:53.072Z,10.00
2023-07-10T05:38:24.006Z,10.00
2023-07-10T05:40:51.956Z,9.75
2023-07-10T05:43:19.948Z,9.25
2023-07-10T05:45:48.483Z,9.25
2023-07-10T05:48:18.242Z,9.00
2023-07-10T05:50:48.607Z,8.25
2023-07-10T05:53:16.828Z,9.75
2023-07-10T05:55:45.642Z,9.75
2023-07-10T05:58:13.665Z,9.00
2023-07-10T06:00:42.529Z,8.25
2023-07-10T06:03:11.624Z,8.75
2023-07-10T06:05:39.698Z,8.50
2023-07-10T06:08:09.642Z,9.25
2023-07-10T06:10:37.610Z,10.00
2023-07-10T06:13:05.952Z,8.50
2023-07-10T06:15:33.931Z,8.75
2023-07-10T06:18:01.985Z,10.00
2023-07-10T06:20:29.956Z,10.00
2023-07-10T06:22:57.943Z,10.00
2023-07-10T06:25:27.543Z,8.25
2023-07-10T06:27:55.571Z,10.00
2023-07-10T06:30:23.702Z,8.75
2023-07-10T06:32:51.657Z,9.00
2023-07-10T06:35:19.962Z,8.00
2023-07-10T06:37:47.907Z,10.25
2023-07-10T06:40:16.989Z,9.00
2023-07-10T06:42:46.383Z,9.00
2023-07-10T06:45:14.633Z,8.00
2023-07-10T06:47:43.203Z,9.00
2023-07-10T06:50:12.360Z,8.50
2023-07-10T06:52:40.608Z,9.00
2023-07-10T06:55:09.748Z,10.00
2023-07-10T06:57:37.733Z,8.25
2023-07-10T07:00:10.549Z,8.75
2023-07-10T07:02:38.638Z,8.00
2023-07-10T07:05:08.946Z,8.50
2023-07-10T07:07:37.474Z,7.25
2023-07-10T07:10:06.454Z,9.00
2023-07-10T07:12:34.475Z,7.25
2023-07-10T07:15:02.676Z,9.00
2023-07-10T07:17:32.152Z,8.00
2023-07-10T07:20:00.127Z,9.00
2023-07-10T07:22:28.659Z,8.75
2023-07-10T07:24:56.917Z,7.75
2023-07-10T07:27:24.929Z,7.50
2023-07-10T07:29:54.816Z,8.00
2023-07-10T07:32:22.919Z,8.25
2023-07-10T07:34:52.626Z,7.50
2023-07-10T07:37:20.652Z,9.00
2023-07-10T07:39:48.609Z,8.25
2023-07-10T07:42:16.526Z,8.00
2023-07-10T07:44:44.463Z,7.50
2023-07-10T07:47:12.485Z,8.00
2023-07-10T07:49:40.584Z,7.75
2023-07-10T07:52:10.351Z,7.75
2023-07-10T07:54:39.483Z,8.75
2023-07-10T07:57:08.744Z,8.00
2023-07-10T07:59:36.692Z,7.25
2023-07-10T08:02:04.764Z,8.00
2023-07-10T08:04:33.073Z,7.00
2023-07-10T08:07:01.215Z,7.50
2023-07-10T08:09:30.681Z,7.00
2023-07-10T08:11:58.582Z,8.00
2023-07-10T08:14:30.373Z,7.75
2023-07-10T08:16:58.395Z,8.00
2023-07-10T08:19:26.394Z,8.00
2023-07-10T08:21:56.210Z,7.00
2023-07-10T08:24:24.278Z,7.00
2023-07-10T08:26:53.588Z,7.00
2023-07-10T08:29:26.075Z,9.00
2023-07-10T08:31:54.825Z,9.00
2023-07-10T08:34:23.272Z,7.00
2023-07-10T08:36:53.212Z,6.75
2023-07-10T08:39:21.154Z,7.25
2023-07-10T08:41:53.099Z,8.25
2023-07-10T08:44:21.465Z,7.75
2023-07-10T08:46:49.587Z,8.00
2023-07-10T08:49:23.508Z,7.00
2023-07-10T08:51:55.094Z,7.00
2023-07-10T08:54:23.354Z,6.25
2023-07-10T08:56:56.542Z,7.25
2023-07-10T08:59:36.783Z,7.00
2023-07-10T09:02:04.966Z,7.00
2023-07-10T09:04:33.041Z,7.00
2023-07-10T09:07:01.816Z,7.50
2023-07-10T09:09:39.273Z,6.50
2023-07-10T09:12:12.437Z,7.00
2023-07-10T09:14:43.676Z,7.00
2023-07-10T09:17:19.580Z,7.25
2023-07-10T09:19:49.544Z,7.25
2023-07-10T09:22:17.523Z,7.50
2023-07-10T09:24:45.751Z,7.00
2023-07-10T09:27:15.931Z,7.00
2023-07-10T09:29:45.485Z,7.25
2023-07-10T09:32:14.720Z,7.25
2023-07-10T09:34:44.422Z,8.00
2023-07-10T09:37:13.246Z,6.00
2023-07-10T09:39:41.251Z,6.50
2023-07-10T09:42:16.487Z,6.00
2023-07-10T09:44:49.402Z,6.25
2023-07-10T09:47:18.176Z,7.00
2023-07-10T09:49:47.653Z,6.75
2023-07-10T09:52:19.669Z,7.00
2023-07-10T09:54:47.617Z,6.00
2023-07-10T09:57:17.761Z,7.00
2023-07-10T09:59:49.552Z,6.25
2023-07-10T10:02:20.545Z,6.50
2023-07-10T10:04:53.446Z,5.25
2023-07-10T10:07:23.837Z,6.25
2023-07-10T10:10:21.976Z,6.25
2023-07-10T10:12:53.887Z,5.00
2023-07-10T10:15:26.032Z,6.50
2023-07-10T10:17:54.057Z,6.25
2023-07-10T10:20:26.167Z,6.00
2023-07-10T10:22:55.627Z,6.75
2023-07-10T10:25:26.679Z,6.50
2023-07-10T10:27:58.832Z,6.00
2023-07-10T10:30:33.833Z,6.00
2023-07-10T10:33:11.412Z,5.75
2023-07-10T10:35:49.957Z,5.25
2023-07-10T10:38:40.007Z,4.75
2023-07-10T10:41:21.074Z,5.00
2023-07-10T10:43:55.193Z,5.75
2023-07-10T10:46:28.726Z,6.00
2023-07-10T10:49:04.763Z,5.75
2023-07-10T10:51:38.841Z,5.75
2023-07-10T10:54:19.651Z,4.25
2023-07-10T10:56:58.862Z,6.25
2023-07-10T10:59:34.678Z,5.00
2023-07-10T11:02:11.145Z,5.75
2023-07-10T11:04:40.541Z,5.00
2023-07-10T11:07:09.600Z,5.75
2023-07-10T11:09:39.404Z,5.50
2023-07-10T11:12:09.216Z,4.25
2023-07-10T11:14:38.893Z,6.00
2023-07-10T11:17:07.367Z,5.00
2023-07-10T11:19:35.959Z,5.00
2023-07-10T11:22:12.537Z,4.25
2023-07-10T11:24:40.776Z,6.00
2023-07-10T11:27:16.214Z,5.00
2023-07-10T11:29:46.358Z,5.00
2023-07-10T11:32:18.734Z,4.00
2023-07-10T11:35:01.010Z,5.00
2023-07-10T11:37:42.918Z,5.00
2023-07-10T11:40:46.142Z,4.25
2023-07-10T11:44:07.298Z,3.50
2023-07-10T11:46:36.653Z,5.00
2023-07-10T11:49:20.778Z,4.00
2023-07-10T11:52:21.700Z,5.00
2023-07-10T11:55:13.974Z,4.00
2023-07-10T11:57:41.936Z,5.00
2023-07-10T12:00:28.735Z,4.50
2023-07-10T12:02:58.953Z,5.00
2023-07-10T12:05:28.479Z,4.00
2023-07-10T12:08:03.980Z,5.00
2023-07-10T12:10:34.485Z,4.50
2023-07-10T12:13:02.414Z,5.00
2023-07-10T12:15:30.767Z,4.00
2023-07-10T12:18:00.224Z,3.50
2023-07-10T12:20:29.841Z,3.75
2023-07-10T12:23:01.187Z,4.00
2023-07-10T12:25:29.477Z,4.00
2023-07-10T12:30:29.742Z,3.50
2023-07-10T12:32:59.418Z,3.00
2023-07-10T12:35:31.649Z,4.00
2023-07-10T12:38:00.495Z,4.00
2023-07-10T12:40:28.570Z,4.00
2023-07-10T12:42:57.398Z,3.75
2023-07-10T12:45:35.179Z,3.25
2023-07-10T12:48:10.456Z,4.00
2023-07-10T12:50:42.639Z,3.75
2023-07-10T12:53:17.150Z,4.00
2023-07-10T12:55:52.842Z,4.00
2023-07-10T12:58:31.170Z,3.75
2023-07-10T13:01:02.793Z,2.25
2023-07-10T13:03:33.693Z,4.75
2023-07-10T13:06:06.281Z,4.00
2023-07-10T13:08:35.207Z,3.50
2023-07-10T13:11:03.915Z,4.50
2023-07-10T13:13:34.582Z,4.00
2023-07-10T13:16:03.280Z,4.00
2023-07-10T13:18:39.172Z,3.25
2023-07-10T13:21:07.703Z,4.00
2023-07-10T13:23:36.882Z,3.00
2023-07-10T13:26:09.251Z,3.00
2023-07-10T13:28:49.242Z,3.25
2023-07-10T13:31:19.482Z,4.25
2023-07-10T13:33:48.856Z,4.25
2023-07-10T13:36:19.479Z,3.00
2023-07-10T13:38:47.571Z,3.00
2023-07-10T13:41:16.276Z,3.00
2023-07-10T13:43:44.257Z,2.50
2023-07-10T13:46:20.628Z,3.75
2023-07-10T13:48:50.620Z,3.00
2023-07-10T13:51:18.782Z,3.75
2023-07-10T13:53:47.079Z,2.00
2023-07-10T13:56:16.232Z,4.00
2023-07-10T13:58:44.241Z,2.25
2023-07-10T14:01:12.929Z,3.00
2023-07-10T14:03:43.385Z,4.00
2023-07-10T14:06:31.025Z,3.00
2023-07-10T14:09:04.926Z,3.00
2023-07-10T14:11:32.892Z,4.00
2023-07-10T14:14:02.343Z,3.00
2023-07-10T14:16:31.450Z,3.25
2023-07-10T14:18:59.465Z,3.00
2023-07-10T14:21:29.024Z,3.00
2023-07-10T14:23:57.348Z,3.00
2023-07-10T14:26:26.023Z,2.50
2023-07-10T14:28:55.076Z,2.75
2023-07-10T14:31:23.115Z,3.00
2023-07-10T14:33:51.383Z,3.00
2023-07-10T14:36:20.240Z,3.00
2023-07-10T14:38:49.611Z,3.00
2023-07-10T14:41:18.884Z,3.00
2023-07-10T14:43:47.458Z,3.00
2023-07-10T14:46:16.914Z,2.00
2023-07-10T14:48:45.561Z,3.00
2023-07-10T14:51:13.727Z,3.00
2023-07-10T14:53:41.744Z,2.50
2023-07-10T14:56:14.914Z,3.00
2023-07-10T14:58:43.070Z,3.00
2023-07-10T15:01:15.816Z,2.50
2023-07-10T15:03:44.296Z,3.00
2023-07-10T15:06:23.169Z,2.50
2023-07-10T15:08:52.673Z,3.00
2023-07-10T15:11:22.295Z,3.00
2023-07-10T15:13:50.758Z,2.25
2023-07-10T15:16:20.274Z,2.25
2023-07-10T15:18:48.290Z,2.50
2023-07-10T15:21:16.890Z,2.00
2023-07-10T15:23:45.377Z,3.00
2023-07-10T15:26:13.612Z,2.00
2023-07-10T15:28:42.960Z,3.00
2023-07-10T15:31:12.350Z,3.00
2023-07-10T15:33:41.384Z,3.75
2023-07-10T15:36:10.822Z,2.50
2023-07-10T15:38:38.826Z,2.00
2023-07-10T15:41:07.202Z,2.00
2023-07-10T15:43:36.281Z,2.00
2023-07-10T15:46:05.599Z,2.50
2023-07-10T15:48:33.523Z,3.00
2023-07-10T15:51:01.525Z,3.25
2023-07-10T15:53:31.143Z,2.00
2023-07-10T15:55:59.357Z,2.00
2023-07-10T15:58:27.312Z,3.00
2023-07-10T16:00:56.405Z,3.75
2023-07-10T16:03:28.185Z,3.00
2023-07-10T16:05:56.945Z,2.00
2023-07-10T16:08:25.711Z,2.00
2023-07-10T16:10:54.931Z,3.00
2023-07-10T16:13:23.963Z,2.00
2023-07-10T16:15:51.962Z,2.25
2023-07-10T16:18:24.896Z,2.00
2023-07-10T16:20:54.559Z,3.00
2023-07-10T16:23:25.798Z,2.00
2023-07-10T16:25:53.758Z,2.00
2023-07-10T16:28:25.271Z,2.00
2023-07-10T16:30:53.442Z,2.00
2023-07-10T16:33:22.359Z,2.00
2023-07-10T16:35:50.809Z,1.50
2023-07-10T16:38:21.804Z,2.00
2023-07-10T16:40:52.319Z,3.00
2023-07-10T16:43:24.507Z,2.00
2023-07-10T16:45:53.748Z,2.00
2023-07-10T16:48:23.397Z,3.00
2023-07-10T16:50:52.289Z,2.50
2023-07-10T16:53:26.660Z,2.00
2023-07-10T16:55:56.218Z,2.00
2023-07-10T16:58:28.260Z,2.50
2023-07-10T17:00:56.543Z,3.00
2023-07-10T17:03:27.472Z,3.00
2023-07-10T17:05:55.591Z,3.00
2023-07-10T17:08:25.789Z,2.50
2023-07-10T17:10:54.522Z,3.00
2023-07-10T17:13:23.726Z,2.00
2023-07-10T17:15:53.529Z,3.00
2023-07-10T17:18:22.378Z,2.00
2023-07-10T17:20:50.998Z,3.75
2023-07-10T17:23:20.660Z,3.00
2023-07-10T17:25:51.038Z,2.25
2023-07-10T17:28:22.922Z,2.00
2023-07-10T17:30:51.589Z,3.00
2023-07-10T17:33:40.550Z,3.00
2023-07-10T17:36:09.857Z,2.50
2023-07-10T17:38:38.135Z,3.00
2023-07-10T17:41:09.444Z,3.00
2023-07-10T17:43:38.658Z,2.25
2023-07-10T17:46:07.100Z,4.00
2023-07-10T17:48:35.141Z,3.50
2023-07-10T17:51:07.707Z,2.50
2023-07-10T17:53:37.929Z,3.50
2023-07-10T17:56:07.556Z,2.50
2023-07-10T17:58:35.512Z,2.75
2023-07-10T18:01:04.820Z,2.25
2023-07-10T18:03:34.359Z,3.25
2023-07-10T18:06:02.448Z,2.00
2023-07-10T18:08:31.278Z,2.50
2023-07-10T18:11:01.324Z,3.00
2023-07-10T18:13:34.664Z,2.75
2023-07-10T18:16:02.651Z,2.25
2023-07-10T18:18:30.652Z,3.50
2023-07-10T18:20:58.673Z,2.25
2023-07-10T18:23:28.038Z,3.50
2023-07-10T18:25:57.037Z,2.00
2023-07-10T18:28:27.370Z,3.00
2023-07-10T18:30:57.349Z,2.00
2023-07-10T18:33:26.431Z,2.00
2023-07-10T18:35:55.752Z,2.25
2023-07-10T18:38:24.152Z,3.00
2023-07-10T18:40:53.394Z,3.00
2023-07-10T18:43:22.597Z,3.00
2023-07-10T18:45:53.578Z,2.00
2023-07-10T18:48:30.532Z,2.50
2023-07-10T18:51:03.447Z,3.00
2023-07-10T18:53:32.839Z,3.00
2023-07-10T18:56:00.861Z,2.00
2023-07-10T18:58:29.533Z,3.00
2023-07-10T19:00:57.871Z,3.00
2023-07-10T19:03:27.773Z,3.00
2023-07-10T19:05:55.869Z,2.75
2023-07-10T19:08:25.213Z,3.00
2023-07-10T19:10:53.243Z,2.00
2023-07-10T19:13:22.506Z,2.00
2023-07-10T19:15:51.645Z,2.00
2023-07-10T19:18:25.612Z,2.25
2023-07-10T19:20:55.033Z,3.00
2023-07-10T19:23:24.298Z,2.75
2023-07-10T19:25:52.434Z,2.75
2023-07-10T19:28:20.566Z,2.25
2023-07-10T19:30:52.243Z,2.50
2023-07-10T19:33:24.098Z,1.75
2023-07-10T19:35:52.169Z,2.00
2023-07-10T19:38:22.723Z,2.00
2023-07-10T19:40:50.970Z,2.00
2023-07-10T19:43:18.942Z,3.00
2023-07-10T19:45:47.295Z,3.00
2023-07-10T19:48:15.978Z,2.00
2023-07-10T19:50:44.173Z,2.75
2023-07-10T19:53:17.648Z,3.00
2023-07-10T19:55:48.123Z,2.25
2023-07-10T19:58:16.922Z,2.00
2023-07-10T20:00:45.310Z,2.00
2023-07-10T20:03:14.891Z,2.00
2023-07-10T20:05:42.948Z,2.00
2023-07-10T20:08:16.262Z,2.00
2023-07-10T20:10:44.566Z,2.25
2023-07-10T20:13:17.512Z,3.00
2023-07-10T20:15:46.176Z,3.00
2023-07-10T20:18:23.189Z,3.00
2023-07-10T20:20:51.472Z,2.75
2023-07-10T20:23:21.185Z,1.75
2023-07-10T20:25:52.339Z,2.00
2023-07-10T20:28:23.129Z,2.00
2023-07-10T20:30:52.234Z,2.50
2023-07-10T20:33:21.393Z,2.00
2023-07-10T20:35:49.499Z,3.00
2023-07-10T20:38:18.620Z,2.00
2023-07-10T20:40:47.149Z,2.00
2023-07-10T20:43:16.844Z,3.00
2023-07-10T20:45:47.951Z,3.00
2023-07-10T20:48:21.920Z,3.00
2023-07-10T20:50:51.568Z,2.00
2023-07-10T20:53:19.964Z,2.25
2023-07-10T20:55:49.571Z,2.00
2023-07-10T20:58:20.079Z,2.00
2023-07-10T21:00:49.696Z,2.00
2023-07-10T21:03:19.025Z,2.00
2023-07-10T21:05:47.700Z,3.00
2023-07-10T21:08:18.701Z,2.50
2023-07-10T21:10:46.746Z,2.75
2023-07-10T21:13:15.625Z,3.75
2023-07-10T21:15:43.676Z,2.75
2023-07-10T21:18:14.336Z,2.00
2023-07-10T21:20:42.725Z,2.00
2023-07-10T21:23:26.364Z,2.00
2023-07-10T21:25:54.898Z,2.00
2023-07-10T21:28:24.285Z,3.00
2023-07-10T21:30:52.620Z,2.00
2023-07-10T21:33:23.355Z,3.00
2023-07-10T21:35:53.270Z,2.25
2023-07-10T21:38:21.250Z,2.00
2023-07-10T21:40:49.520Z,2.50
2023-07-10T21:43:19.316Z,3.00
2023-07-10T21:45:47.441Z,3.00
2023-07-10T21:48:21.361Z,3.00
2023-07-10T21:50:51.782Z,2.00
2023-07-10T21:53:20.494Z,2.25
2023-07-10T21:55:48.513Z,2.00
2023-07-10T21:58:18.813Z,3.00
2023-07-10T22:00:46.979Z,2.00
2023-07-10T22:03:24.742Z,2.00
2023-07-10T22:05:54.822Z,4.00
2023-07-10T22:08:22.840Z,2.00
2023-07-10T22:10:51.698Z,2.00
2023-07-10T22:13:21.922Z,2.00
2023-07-10T22:15:50.984Z,2.75
2023-07-10T22:18:20.012Z,3.00
2023-07-10T22:20:48.933Z,3.50
2023-07-10T22:23:19.460Z,3.00
2023-07-10T22:25:48.219Z,2.25
2023-07-10T22:28:17.282Z,3.00
2023-07-10T22:30:46.647Z,3.00
2023-07-10T22:33:15.085Z,3.00
2023-07-10T22:35:43.196Z,2.00
2023-07-10T22:38:12.287Z,3.25
2023-07-10T22:40:41.702Z,2.75
2023-07-10T22:43:11.487Z,2.25
2023-07-10T22:45:39.624Z,2.75
2023-07-10T22:48:14.941Z,2.00
2023-07-10T22:50:43.211Z,3.00
2023-07-10T22:53:11.195Z,3.50
2023-07-10T22:55:39.461Z,3.00
2023-07-10T22:58:09.129Z,4.00
2023-07-10T23:00:37.702Z,3.00
2023-07-10T23:03:06.580Z,2.00
2023-07-10T23:05:34.708Z,2.75
2023-07-10T23:08:03.320Z,3.00
2023-07-10T23:10:31.488Z,2.75
2023-07-10T23:12:59.446Z,3.00
2023-07-10T23:15:28.809Z,2.25
2023-07-10T23:17:57.285Z,3.00
2023-07-10T23:20:26.066Z,2.00
2023-07-10T23:22:54.397Z,2.75
2023-07-10T23:25:22.468Z,3.00
2023-07-10T23:27:50.739Z,2.50
2023-07-10T23:30:19.766Z,3.00
2023-07-10T23:32:50.201Z,2.75
2023-07-10T23:35:18.178Z,2.00
2023-07-10T23:37:46.541Z,2.50
2023-07-10T23:40:16.355Z,4.00
2023-07-10T23:42:44.476Z,3.00
2023-07-10T23:45:13.572Z,3.50
2023-07-10T23:47:42.749Z,3.00
2023-07-10T23:50:12.408Z,2.00
2023-07-10T23:52:40.354Z,4.00
2023-07-10T23:55:10.908Z,3.00
2023-07-10T23:57:40.489Z,3.00
